createdAt,value
2022-09-26T00:01:32.392Z,8.00
2022-09-26T00:04:08.972Z,9.50
2022-09-26T00:06:36.882Z,7.70
2022-09-26T00:09:04.030Z,7.90
2022-09-26T00:11:33.445Z,7.70
2022-09-26T00:14:04.430Z,7.80
2022-09-26T00:16:32.074Z,8.00
2022-09-26T00:21:30.083Z,7.60
2022-09-26T00:23:58.292Z,8.20
2022-09-26T00:26:26.560Z,7.90
2022-09-26T00:28:54.722Z,7.90
2022-09-26T00:31:29.067Z,7.50
2022-09-26T00:33:57.746Z,7.90
2022-09-26T00:36:37.024Z,7.90
2022-09-26T00:44:00.618Z,7.50
2022-09-26T00:46:32.116Z,7.70
2022-09-26T00:49:10.883Z,8.10
2022-09-26T00:51:41.351Z,7.40
2022-09-26T00:54:14.760Z,8.00
2022-09-26T00:56:45.627Z,7.10
2022-09-26T00:59:33.100Z,7.40
2022-09-26T01:02:02.147Z,7.30
2022-09-26T01:04:32.916Z,7.50
2022-09-26T01:07:03.778Z,7.30
2022-09-26T01:09:32.255Z,7.50
2022-09-26T01:12:01.392Z,7.60
2022-09-26T01:19:56.839Z,6.90
2022-09-26T01:23:02.268Z,7.70
2022-09-26T01:25:29.237Z,7.00
2022-09-26T01:28:08.249Z,7.10
2022-09-26T01:31:24.351Z,7.40
2022-09-26T01:34:10.454Z,7.30
2022-09-26T01:37:01.974Z,6.90
2022-09-26T01:39:52.344Z,6.70
2022-09-26T01:42:42.522Z,7.30
2022-09-26T01:45:23.040Z,7.40
2022-09-26T01:48:30.748Z,6.80
2022-09-26T01:51:03.715Z,7.50
2022-09-26T01:53:31.360Z,7.20
2022-09-26T01:56:07.907Z,7.30
2022-09-26T01:58:41.629Z,7.10
2022-09-26T02:01:13.777Z,7.10
2022-09-26T02:03:50.678Z,6.70
2022-09-26T02:06:27.152Z,7.70
2022-09-26T02:08:59.228Z,7.30
2022-09-26T02:11:26.878Z,7.30
2022-09-26T02:14:12.752Z,7.40
2022-09-26T02:16:52.682Z,7.20
2022-09-26T02:19:51.849Z,8.50
2022-09-26T02:22:19.570Z,6.80
2022-09-26T02:24:46.682Z,6.90
2022-09-26T02:27:14.195Z,7.40
2022-09-26T02:29:43.348Z,6.90
2022-09-26T02:32:21.725Z,7.00
2022-09-26T02:34:50.297Z,7.30
2022-09-26T02:37:20.990Z,7.10
2022-09-26T02:39:50.721Z,6.90
2022-09-26T02:42:44.344Z,7.00
2022-09-26T02:45:26.556Z,6.90
2022-09-26T02:48:44.904Z,7.00
2022-09-26T02:51:28.656Z,7.20
2022-09-26T02:54:20.419Z,6.70
2022-09-26T02:57:22.529Z,6.50
2022-09-26T03:00:12.337Z,6.80
2022-09-26T03:03:16.583Z,7.00
2022-09-26T03:05:47.017Z,6.90
2022-09-26T03:08:18.779Z,6.90
2022-09-26T03:10:48.537Z,6.60
2022-09-26T03:13:17.080Z,6.70
2022-09-26T03:15:49.210Z,6.80
2022-09-26T03:18:24.589Z,6.90
2022-09-26T03:20:54.192Z,6.90
2022-09-26T03:23:26.480Z,6.90
2022-09-26T03:26:08.992Z,7.00
2022-09-26T03:28:38.461Z,6.60
2022-09-26T03:31:06.106Z,7.10
2022-09-26T03:33:44.548Z,6.80
2022-09-26T03:36:11.578Z,7.00
2022-09-26T03:38:38.914Z,7.10
2022-09-26T03:41:17.863Z,6.60
2022-09-26T03:43:45.014Z,7.20
2022-09-26T03:46:15.900Z,7.00
2022-09-26T03:48:43.660Z,7.00
2022-09-26T03:51:14.673Z,7.00
2022-09-26T03:53:43.544Z,6.80
2022-09-26T03:56:18.231Z,6.80
2022-09-26T03:58:45.833Z,8.00
2022-09-26T04:01:15.780Z,6.30
2022-09-26T04:03:50.018Z,7.20
2022-09-26T04:06:21.907Z,7.20
2022-09-26T04:08:52.608Z,7.00
2022-09-26T04:11:21.852Z,7.30
2022-09-26T04:13:52.979Z,6.90
2022-09-26T04:16:24.407Z,7.20
2022-09-26T04:19:01.674Z,6.80
2022-09-26T04:21:29.804Z,6.80
2022-09-26T04:23:59.040Z,6.70
2022-09-26T04:26:26.137Z,7.70
2022-09-26T04:28:56.394Z,6.70
2022-09-26T04:34:09.794Z,6.80
2022-09-26T04:36:36.907Z,7.00
2022-09-26T04:39:05.082Z,7.10
2022-09-26T04:44:01.839Z,7.00
2022-09-26T04:49:01.298Z,7.40
2022-09-26T04:51:30.245Z,7.60
2022-09-26T04:56:29.693Z,7.60
2022-09-26T04:58:58.699Z,7.90
2022-09-26T05:01:31.335Z,7.80
2022-09-26T05:04:07.272Z,8.20
2022-09-26T05:06:35.019Z,8.60
2022-09-26T05:09:04.414Z,8.90
2022-09-26T05:12:07.119Z,9.20
2022-09-26T05:14:36.261Z,9.20
2022-09-26T05:17:04.732Z,9.30
2022-09-26T05:19:32.982Z,9.60
2022-09-26T05:22:18.774Z,9.40
2022-09-26T05:25:04.618Z,11.00
2022-09-26T05:30:00.955Z,10.40
2022-09-26T05:34:57.648Z,11.00
2022-09-26T05:37:26.979Z,11.00
2022-09-26T05:40:12.668Z,12.20
2022-09-26T05:42:45.423Z,14.00
2022-09-26T05:45:13.819Z,13.30
2022-09-26T05:47:42.392Z,12.50
2022-09-26T05:50:10.903Z,11.90
2022-09-26T05:52:39.817Z,11.40
2022-09-26T05:55:11.860Z,11.50
2022-09-26T06:00:42.723Z,11.70
2022-09-26T06:03:10.121Z,11.20
2022-09-26T06:05:52.004Z,11.20
2022-09-26T06:08:24.303Z,10.80
2022-09-26T06:11:09.493Z,11.10
2022-09-26T06:13:37.089Z,10.90
2022-09-26T06:16:06.457Z,11.10
2022-09-26T06:18:35.783Z,12.10
2022-09-26T06:21:07.644Z,11.30
2022-09-26T06:23:35.945Z,11.50
2022-09-26T06:26:20.434Z,11.10
2022-09-26T06:31:19.969Z,11.30
2022-09-26T06:34:26.451Z,11.90
2022-09-26T06:37:21.162Z,11.60
2022-09-26T06:42:16.614Z,12.20
2022-09-26T06:45:11.713Z,12.40
2022-09-26T06:50:34.712Z,13.40
2022-09-26T06:53:08.390Z,13.80
2022-09-26T06:55:40.356Z,14.10
2022-09-26T06:58:08.182Z,14.70
2022-09-26T07:00:49.118Z,14.70
2022-09-26T07:03:45.725Z,15.00
2022-09-26T07:06:32.214Z,15.50
2022-09-26T07:09:03.795Z,15.70
2022-09-26T07:12:13.482Z,15.50
2022-09-26T07:14:42.814Z,16.50
2022-09-26T07:17:27.767Z,16.80
2022-09-26T07:20:04.382Z,16.70
2022-09-26T07:22:51.115Z,16.70
2022-09-26T07:25:18.390Z,16.20
2022-09-26T07:27:50.548Z,16.90
2022-09-26T07:30:20.816Z,16.50
2022-09-26T07:33:03.181Z,17.30
2022-09-26T07:35:46.617Z,16.70
2022-09-26T07:38:13.905Z,18.00
2022-09-26T07:40:44.776Z,17.40
2022-09-26T07:43:21.244Z,17.50
2022-09-26T07:46:13.674Z,17.00
2022-09-26T07:49:23.872Z,17.20
2022-09-26T07:52:09.846Z,16.70
2022-09-26T07:57:50.148Z,16.90
2022-09-26T08:00:40.730Z,17.20
2022-09-26T08:03:46.155Z,17.40
2022-09-26T08:06:25.833Z,16.70
2022-09-26T08:08:58.599Z,17.80
2022-09-26T08:12:04.592Z,17.30
2022-09-26T08:15:00.897Z,17.80
2022-09-26T08:17:44.356Z,17.20
2022-09-26T08:20:12.814Z,17.50
2022-09-26T08:22:39.911Z,17.40
2022-09-26T08:25:08.422Z,17.10
2022-09-26T08:27:43.832Z,17.00
2022-09-26T08:35:12.237Z,17.70
2022-09-26T08:38:07.546Z,17.40
2022-09-26T08:41:03.181Z,17.40
2022-09-26T08:44:11.470Z,17.50
2022-09-26T08:47:02.265Z,17.30
2022-09-26T08:50:23.427Z,17.10
2022-09-26T08:52:58.183Z,17.20
2022-09-26T08:55:32.757Z,17.20
2022-09-26T08:58:08.356Z,16.80
2022-09-26T09:00:38.206Z,16.90
2022-09-26T09:03:20.580Z,17.30
2022-09-26T09:06:07.465Z,17.00
2022-09-26T09:08:51.457Z,17.10
2022-09-26T09:11:49.129Z,17.90
2022-09-26T09:14:35.965Z,17.50
2022-09-26T09:17:37.947Z,17.30
2022-09-26T09:20:52.473Z,17.20
2022-09-26T09:23:56.292Z,17.30
2022-09-26T09:29:26.868Z,17.70
2022-09-26T09:32:18.869Z,17.40
2022-09-26T09:35:16.607Z,17.30
2022-09-26T09:38:03.292Z,17.10
2022-09-26T09:40:46.693Z,17.60
2022-09-26T09:43:33.927Z,17.40
2022-09-26T09:46:14.010Z,17.40
2022-09-26T09:48:41.242Z,17.70
2022-09-26T09:51:51.531Z,17.60
2022-09-26T09:54:40.381Z,17.60
2022-09-26T09:57:10.406Z,17.60
2022-09-26T10:00:02.357Z,17.70
2022-09-26T10:03:02.243Z,17.40
2022-09-26T10:05:45.377Z,17.80
2022-09-26T10:08:27.057Z,17.70
2022-09-26T10:11:34.615Z,17.90
2022-09-26T10:14:31.407Z,17.60
2022-09-26T10:17:10.212Z,17.50
2022-09-26T10:22:25.159Z,17.50
2022-09-26T10:25:08.621Z,18.00
2022-09-26T10:27:46.882Z,17.90
2022-09-26T10:30:32.571Z,18.20
2022-09-26T10:33:25.600Z,17.90
2022-09-26T10:36:40.258Z,17.70
2022-09-26T10:39:38.557Z,17.90
2022-09-26T10:42:16.147Z,18.40
2022-09-26T10:44:43.315Z,17.60
2022-09-26T10:47:26.277Z,18.40
2022-09-26T10:50:16.558Z,17.90
2022-09-26T10:53:01.303Z,17.90
2022-09-26T10:55:36.574Z,17.80
2022-09-26T10:58:13.684Z,18.10
2022-09-26T11:00:50.425Z,18.00
2022-09-26T11:03:33.923Z,17.80
2022-09-26T11:06:34.094Z,18.00
2022-09-26T11:09:20.712Z,17.90
2022-09-26T11:12:28.778Z,18.10
2022-09-26T11:15:11.615Z,18.00
2022-09-26T11:17:48.009Z,18.00
2022-09-26T11:20:37.892Z,18.30
2022-09-26T11:23:32.053Z,18.40
2022-09-26T11:26:03.815Z,18.50
2022-09-26T11:28:47.227Z,18.70
2022-09-26T11:31:26.478Z,19.00
2022-09-26T11:34:26.693Z,19.10
2022-09-26T11:37:17.355Z,19.30
2022-09-26T11:40:14.417Z,19.20
2022-09-26T11:42:57.731Z,19.20
2022-09-26T11:45:57.265Z,19.30
2022-09-26T11:49:11.024Z,19.30
2022-09-26T11:52:37.211Z,19.70
2022-09-26T11:55:15.164Z,20.30
2022-09-26T11:58:03.691Z,20.10
2022-09-26T12:00:49.425Z,19.50
2022-09-26T12:03:50.214Z,19.40
2022-09-26T12:06:38.683Z,19.30
2022-09-26T12:09:37.598Z,19.20
2022-09-26T12:12:09.628Z,19.20
2022-09-26T12:15:08.173Z,19.20
2022-09-26T12:17:59.604Z,19.30
2022-09-26T12:20:57.127Z,19.70
2022-09-26T12:23:40.064Z,19.00
2022-09-26T12:26:19.931Z,15.20
2022-09-26T12:28:59.136Z,18.90
2022-09-26T12:31:39.107Z,19.10
2022-09-26T12:34:21.189Z,18.70
2022-09-26T12:37:05.974Z,18.60
2022-09-26T12:39:49.712Z,18.60
2022-09-26T12:42:52.338Z,19.20
2022-09-26T12:45:31.690Z,18.50
2022-09-26T12:48:25.327Z,18.00
2022-09-26T12:51:28.678Z,18.00
2022-09-26T12:54:25.400Z,17.90
2022-09-26T12:57:04.293Z,18.00
2022-09-26T12:59:43.889Z,17.90
2022-09-26T13:02:20.127Z,18.30
2022-09-26T13:05:37.010Z,18.40
2022-09-26T13:08:16.003Z,18.70
2022-09-26T13:10:55.462Z,18.50
2022-09-26T13:13:48.341Z,18.50
2022-09-26T13:16:40.979Z,18.60
2022-09-26T13:19:34.908Z,18.50
2022-09-26T13:22:14.694Z,18.30
2022-09-26T13:24:51.402Z,18.70
2022-09-26T13:27:30.006Z,18.40
2022-09-26T13:30:03.378Z,18.20
2022-09-26T13:32:47.943Z,18.50
2022-09-26T13:35:16.896Z,18.60
2022-09-26T13:37:48.013Z,18.60
2022-09-26T13:40:33.136Z,18.10
2022-09-26T13:43:19.238Z,18.30
2022-09-26T13:46:06.075Z,18.10
2022-09-26T13:48:49.034Z,18.30
2022-09-26T13:51:41.968Z,17.90
2022-09-26T13:54:31.331Z,18.20
2022-09-26T13:56:58.325Z,18.40
2022-09-26T13:59:34.347Z,18.00
2022-09-26T14:02:17.960Z,18.00
2022-09-26T14:04:55.832Z,17.90
2022-09-26T14:07:56.286Z,17.90
2022-09-26T14:10:34.325Z,17.60
2022-09-26T14:15:49.397Z,17.60
2022-09-26T14:18:45.480Z,17.60
2022-09-26T14:21:33.885Z,18.30
2022-09-26T14:24:33.469Z,17.50
2022-09-26T14:27:09.846Z,17.50
2022-09-26T14:29:39.668Z,17.60
2022-09-26T14:32:10.473Z,17.20
2022-09-26T14:34:37.636Z,17.00
2022-09-26T14:37:29.748Z,17.20
2022-09-26T14:39:59.997Z,16.60
2022-09-26T14:42:49.294Z,16.40
2022-09-26T14:45:16.647Z,16.80
2022-09-26T14:47:51.051Z,16.50
2022-09-26T14:50:26.816Z,17.00
2022-09-26T14:52:57.010Z,16.70
2022-09-26T14:55:25.430Z,16.80
2022-09-26T14:57:52.912Z,17.00
2022-09-26T15:00:40.610Z,16.90
2022-09-26T15:03:14.673Z,16.70
2022-09-26T15:05:42.900Z,17.10
2022-09-26T15:08:28.039Z,16.90
2022-09-26T15:10:58.137Z,17.00
2022-09-26T15:13:42.610Z,16.80
2022-09-26T15:16:29.229Z,17.00
2022-09-26T15:19:07.062Z,17.00
2022-09-26T15:21:44.755Z,17.20
2022-09-26T15:24:36.599Z,17.50
2022-09-26T15:27:18.711Z,17.10
2022-09-26T15:29:49.682Z,17.00
2022-09-26T15:32:38.999Z,18.50
2022-09-26T15:35:11.005Z,16.90
2022-09-26T15:37:38.557Z,16.70
2022-09-26T15:40:21.582Z,16.60
2022-09-26T15:42:59.011Z,16.20
2022-09-26T15:45:46.386Z,16.00
2022-09-26T15:48:20.237Z,15.80
2022-09-26T15:50:53.534Z,15.70
2022-09-26T15:53:44.945Z,14.50
2022-09-26T15:56:13.725Z,16.00
2022-09-26T15:58:52.945Z,16.20
2022-09-26T16:01:26.849Z,15.90
2022-09-26T16:04:07.459Z,15.70
2022-09-26T16:06:37.937Z,15.40
2022-09-26T16:09:13.421Z,15.80
2022-09-26T16:11:50.184Z,15.30
2022-09-26T16:14:48.004Z,15.90
2022-09-26T16:17:23.583Z,15.80
2022-09-26T16:19:54.202Z,15.40
2022-09-26T16:24:50.898Z,15.40
2022-09-26T16:27:26.760Z,15.30
2022-09-26T16:29:53.871Z,14.80
2022-09-26T16:32:22.229Z,14.90
2022-09-26T16:34:49.820Z,15.10
2022-09-26T16:37:18.840Z,15.30
2022-09-26T16:40:01.378Z,14.50
2022-09-26T16:42:33.487Z,14.70
2022-09-26T16:45:04.572Z,14.60
2022-09-26T16:47:42.644Z,14.30
2022-09-26T16:50:26.572Z,14.70
2022-09-26T16:52:54.624Z,14.20
2022-09-26T16:55:27.310Z,14.40
2022-09-26T16:57:59.623Z,14.00
2022-09-26T17:00:52.643Z,14.30
2022-09-26T17:05:57.525Z,14.30
2022-09-26T17:08:26.475Z,14.50
2022-09-26T17:10:56.342Z,14.00
2022-09-26T17:13:26.416Z,14.70
2022-09-26T17:16:00.696Z,13.90
2022-09-26T17:18:29.416Z,14.10
2022-09-26T17:20:59.284Z,14.10
2022-09-26T17:23:46.579Z,14.20
2022-09-26T17:26:21.538Z,14.40
2022-09-26T17:28:49.923Z,14.40
2022-09-26T17:31:21.605Z,14.60
2022-09-26T17:33:52.413Z,14.40
2022-09-26T17:36:27.505Z,14.00
2022-09-26T17:38:54.874Z,14.90
2022-09-26T17:41:23.190Z,14.10
2022-09-26T17:43:59.055Z,14.20
2022-09-26T17:46:27.184Z,13.80
2022-09-26T17:48:56.155Z,14.40
2022-09-26T17:51:24.077Z,14.30
2022-09-26T17:53:52.702Z,14.30
2022-09-26T17:56:20.759Z,13.90
2022-09-26T17:58:52.038Z,14.40
2022-09-26T18:01:24.288Z,14.30
2022-09-26T18:03:55.666Z,14.50
2022-09-26T18:06:27.457Z,14.20
2022-09-26T18:11:27.491Z,13.80
2022-09-26T18:13:55.378Z,14.20
2022-09-26T18:16:23.501Z,14.20
2022-09-26T18:18:51.463Z,14.70
2022-09-26T18:21:19.930Z,14.00
2022-09-26T18:23:58.905Z,14.00
2022-09-26T18:26:32.206Z,14.40
2022-09-26T18:29:03.472Z,14.40
2022-09-26T18:31:33.184Z,14.00
2022-09-26T18:34:01.149Z,13.90
2022-09-26T18:36:35.716Z,14.20
2022-09-26T18:39:03.264Z,13.90
2022-09-26T18:41:30.822Z,13.80
2022-09-26T18:44:00.497Z,13.90
2022-09-26T18:46:29.426Z,14.30
2022-09-26T18:48:59.986Z,14.10
2022-09-26T18:53:57.602Z,13.60
2022-09-26T18:56:42.962Z,13.40
2022-09-26T18:59:10.451Z,13.90
2022-09-26T19:01:41.364Z,13.90
2022-09-26T19:04:20.178Z,13.80
2022-09-26T19:06:54.544Z,13.70
2022-09-26T19:09:22.747Z,14.10
2022-09-26T19:11:49.983Z,13.90
2022-09-26T19:14:20.911Z,14.60
2022-09-26T19:16:50.581Z,13.90
2022-09-26T19:19:18.801Z,13.70
2022-09-26T19:21:52.867Z,13.90
2022-09-26T19:24:29.014Z,14.00
2022-09-26T19:26:58.966Z,15.20
2022-09-26T19:29:41.441Z,13.60
2022-09-26T19:32:21.844Z,13.90
2022-09-26T19:34:56.738Z,14.50
2022-09-26T19:37:23.739Z,13.60
2022-09-26T19:39:50.988Z,14.00
2022-09-26T19:42:18.340Z,14.60
2022-09-26T19:44:47.701Z,14.40
2022-09-26T19:47:19.874Z,14.20
2022-09-26T19:49:49.402Z,13.50
2022-09-26T19:52:20.330Z,13.90
2022-09-26T19:54:47.993Z,13.10
2022-09-26T19:57:22.042Z,12.90
2022-09-26T19:59:50.417Z,13.40
2022-09-26T20:02:20.955Z,12.70
2022-09-26T20:04:48.615Z,12.70
2022-09-26T20:07:18.950Z,12.80
2022-09-26T20:09:47.279Z,12.80
2022-09-26T20:12:15.089Z,13.70
2022-09-26T20:14:42.423Z,12.60
2022-09-26T20:17:40.278Z,13.00
2022-09-26T20:20:11.493Z,13.10
2022-09-26T20:22:41.655Z,12.90
2022-09-26T20:25:21.424Z,13.00
2022-09-26T20:27:50.607Z,13.10
2022-09-26T20:30:37.454Z,12.90
2022-09-26T20:33:05.000Z,13.10
2022-09-26T20:35:36.998Z,13.10
2022-09-26T20:38:07.558Z,12.70
2022-09-26T20:43:10.247Z,13.10
2022-09-26T20:45:40.716Z,12.50
2022-09-26T20:48:19.506Z,12.70
2022-09-26T20:50:48.442Z,12.70
2022-09-26T20:53:20.598Z,13.00
2022-09-26T20:55:48.510Z,12.50
2022-09-26T20:58:18.786Z,12.60
2022-09-26T21:00:46.119Z,12.50
2022-09-26T21:03:16.013Z,12.40
2022-09-26T21:05:44.102Z,12.70
2022-09-26T21:08:26.300Z,12.60
2022-09-26T21:10:54.380Z,12.30
2022-09-26T21:13:23.369Z,12.90
2022-09-26T21:15:52.467Z,12.80
2022-09-26T21:18:25.764Z,12.40
2022-09-26T21:20:54.033Z,12.30
2022-09-26T21:23:43.114Z,12.30
2022-09-26T21:26:17.634Z,12.20
2022-09-26T21:28:44.934Z,12.00
2022-09-26T21:31:22.238Z,11.90
2022-09-26T21:33:49.760Z,11.80
2022-09-26T21:36:19.310Z,11.90
2022-09-26T21:43:46.113Z,11.70
2022-09-26T21:46:13.291Z,11.40
2022-09-26T21:48:40.354Z,11.60
2022-09-26T21:51:08.587Z,10.80
2022-09-26T21:53:46.836Z,11.40
2022-09-26T21:56:22.848Z,11.60
2022-09-26T21:58:53.025Z,11.60
2022-09-26T22:03:47.968Z,11.10
2022-09-26T22:06:14.986Z,11.60
2022-09-26T22:08:42.617Z,11.30
2022-09-26T22:11:10.042Z,11.70
2022-09-26T22:13:38.083Z,11.50
2022-09-26T22:16:11.354Z,10.90
2022-09-26T22:18:40.114Z,11.10
2022-09-26T22:21:09.415Z,11.40
2022-09-26T22:23:37.642Z,10.90
2022-09-26T22:26:05.159Z,11.10
2022-09-26T22:28:32.846Z,11.30
2022-09-26T22:31:04.818Z,11.20
2022-09-26T22:33:32.414Z,11.00
2022-09-26T22:35:59.870Z,10.50
2022-09-26T22:38:27.046Z,11.80
2022-09-26T22:40:58.479Z,10.90
2022-09-26T22:43:26.726Z,10.90
2022-09-26T22:45:59.821Z,11.20
2022-09-26T22:48:50.065Z,11.30
2022-09-26T22:51:17.367Z,11.00
2022-09-26T22:53:45.076Z,11.20
2022-09-26T22:56:15.428Z,11.30
2022-09-26T22:58:45.297Z,11.10
2022-09-26T23:01:15.651Z,11.30
2022-09-26T23:03:43.038Z,11.50
2022-09-26T23:06:10.741Z,11.70
2022-09-26T23:08:38.409Z,11.60
2022-09-26T23:11:07.177Z,11.50
2022-09-26T23:13:35.610Z,11.70
2022-09-26T23:16:05.304Z,10.60
2022-09-26T23:21:22.345Z,12.40
2022-09-26T23:23:51.820Z,11.70
2022-09-26T23:26:24.587Z,11.60
2022-09-26T23:28:53.412Z,12.00
2022-09-26T23:31:21.613Z,11.60
2022-09-26T23:36:16.666Z,12.40
2022-09-26T23:41:12.771Z,11.60
2022-09-26T23:43:40.589Z,11.80
2022-09-26T23:46:08.712Z,11.50
2022-09-26T23:48:35.952Z,11.70
2022-09-26T23:51:03.855Z,11.90
2022-09-26T23:56:13.723Z,11.50
2022-09-26T23:58:41.674Z,12.00
